Time;durP1;ratioP1;P1;durP2;ratioP2;P2;SDS_P1;SDS_P2;PMS_P1;PMS_P2;Temp;Humidity;BMP_temperature;BMP_pressure;BME280_temperature;BME280_humidity;BME280_pressure;Samples;Min_cycle;Max_cycle;Signal;HPM_P1;HPM_P2
2023/11/30 00:00:40;;;;;;;27.75;11.98;;;-1.80;99.90;;;;;;2585579;54;20959;31
2023/11/30 00:03:13;;;;;;;29.50;10.60;;;-1.80;99.90;;;;;;2603625;46;21044;31
2023/11/30 00:05:47;;;;;;;27.55;11.90;;;-1.80;99.90;;;;;;2585274;54;20933;31
2023/11/30 00:08:21;;;;;;;26.50;10.30;;;-1.80;99.90;;;;;;2603648;46;20030;31
2023/11/30 00:10:56;;;;;;;28.67;10.63;;;-1.70;99.90;;;;;;2585368;54;20036;31
2023/11/30 00:13:29;;;;;;;30.83;11.53;;;-1.70;99.90;;;;;;2585556;54;20031;31
2023/11/30 00:16:05;;;;;;;25.25;11.50;;;-1.70;99.90;;;;;;2585362;54;21213;31
2023/11/30 00:18:38;;;;;;;31.00;13.70;;;-1.70;99.90;;;;;;2585345;54;20030;31
2023/11/30 00:21:13;;;;;;;27.45;13.20;;;-1.60;99.90;;;;;;2585325;54;21128;31
2023/11/30 00:23:49;;;;;;;26.45;11.55;;;-1.60;99.90;;;;;;2585281;54;20027;31
2023/11/30 00:26:24;;;;;;;24.70;10.70;;;-1.60;99.90;;;;;;2585025;54;20761;31
2023/11/30 00:29:00;;;;;;;22.08;10.30;;;-1.60;99.90;;;;;;2603746;46;21022;31
2023/11/30 00:31:37;;;;;;;23.80;10.55;;;-1.60;99.90;;;;;;2603780;46;20968;31
2023/11/30 00:34:11;;;;;;;19.60;8.90;;;-1.50;99.90;;;;;;2585147;54;20163;31
2023/11/30 00:36:45;;;;;;;18.85;8.10;;;-1.60;99.90;;;;;;2585252;54;20107;31
2023/11/30 00:39:19;;;;;;;14.02;7.60;;;-1.50;99.90;;;;;;2585222;54;20783;31
2023/11/30 00:41:53;;;;;;;15.50;7.18;;;-1.50;99.90;;;;;;2584963;54;22007;31
2023/11/30 00:44:26;;;;;;;18.65;8.10;;;-1.50;99.90;;;;;;2683397;39;21042;31
2023/11/30 00:47:02;;;;;;;14.43;6.30;;;-1.40;99.90;;;;;;2603705;46;22420;31
2023/11/30 00:49:36;;;;;;;21.17;9.03;;;-1.40;99.90;;;;;;2585063;54;20029;31
2023/11/30 00:52:10;;;;;;;24.30;9.35;;;-1.40;99.90;;;;;;2585242;54;20251;31
2023/11/30 00:54:43;;;;;;;22.77;8.73;;;-1.30;99.90;;;;;;2604082;46;20026;31
2023/11/30 00:57:18;;;;;;;22.25;9.45;;;-1.30;99.90;;;;;;2584975;54;21009;31
2023/11/30 00:59:52;;;;;;;29.83;10.07;;;-1.40;99.90;;;;;;2584980;54;21013;31
2023/11/30 01:02:27;;;;;;;23.90;9.05;;;-3.40;99.90;;;;;;2585196;54;21224;31
2023/11/30 01:05:01;;;;;;;25.83;9.57;;;-1.30;99.90;;;;;;2585034;54;20024;31
2023/11/30 01:07:36;;;;;;;22.57;9.53;;;-1.30;99.90;;;;;;2585067;54;20040;31
2023/11/30 01:10:12;;;;;;;21.35;8.75;;;-1.30;99.90;;;;;;2584982;54;20022;31
2023/11/30 01:12:47;;;;;;;32.40;11.30;;;-1.30;99.90;;;;;;2585248;54;20034;31
2023/11/30 01:15:20;;;;;;;21.65;8.75;;;-1.30;99.90;;;;;;2603807;47;20801;31
2023/11/30 01:17:58;;;;;;;15.48;7.80;;;-1.30;99.90;;;;;;2603645;47;20055;31
2023/11/30 01:20:32;;;;;;;19.85;7.50;;;-1.20;99.90;;;;;;2585161;54;20026;31
2023/11/30 01:23:06;;;;;;;15.07;6.68;;;-1.20;99.90;;;;;;2584924;54;20030;31
2023/11/30 01:25:39;;;;;;;17.10;7.00;;;-1.10;99.90;;;;;;2585254;54;20808;31
2023/11/30 01:28:12;;;;;;;14.57;7.03;;;-1.20;99.90;;;;;;2584981;54;20158;31
2023/11/30 01:30:44;;;;;;;14.50;6.47;;;-1.10;99.90;;;;;;2585226;54;20031;31
2023/11/30 01:33:21;;;;;;;13.93;7.13;;;-1.10;99.90;;;;;;2585100;54;20030;31
2023/11/30 01:35:54;;;;;;;14.80;6.75;;;-1.00;99.90;;;;;;2585300;54;20947;31
2023/11/30 01:38:27;;;;;;;17.55;7.05;;;-1.00;99.90;;;;;;2772063;31;21276;31
2023/11/30 01:41:02;;;;;;;15.50;7.00;;;-1.00;99.90;;;;;;2584900;54;20945;31
2023/11/30 01:43:35;;;;;;;12.20;6.20;;;-0.90;99.90;;;;;;2585159;54;20030;31
2023/11/30 01:46:09;;;;;;;13.95;6.72;;;-1.00;99.90;;;;;;2584831;54;20950;31
2023/11/30 01:48:44;;;;;;;15.10;6.63;;;-1.00;99.90;;;;;;2584407;54;20124;31
2023/11/30 01:51:19;;;;;;;12.93;7.50;;;-1.00;99.90;;;;;;2584809;54;20050;31
2023/11/30 01:53:52;;;;;;;16.80;7.55;;;-0.90;99.90;;;;;;2584568;54;20994;31
2023/11/30 01:56:29;;;;;;;16.38;7.00;;;-0.90;99.90;;;;;;2584886;54;21531;31
2023/11/30 01:59:04;;;;;;;14.63;7.30;;;-0.90;99.90;;;;;;2584097;54;20900;31
2023/11/30 02:01:37;;;;;;;15.63;7.25;;;-0.90;99.90;;;;;;2584747;54;21041;31
2023/11/30 02:04:15;;;;;;;16.05;6.85;;;-0.90;99.90;;;;;;2603308;47;20026;31
2023/11/30 02:06:49;;;;;;;13.70;6.90;;;-0.90;99.90;;;;;;2584821;54;20026;31
2023/11/30 02:09:21;;;;;;;11.48;6.28;;;-0.80;99.90;;;;;;2584946;54;20039;31
2023/11/30 02:11:55;;;;;;;16.50;7.20;;;-0.80;99.90;;;;;;2584890;54;20034;31
2023/11/30 02:14:28;;;;;;;14.35;6.60;;;-0.80;99.90;;;;;;2585317;54;20926;31
2023/11/30 02:17:03;;;;;;;13.90;7.07;;;-0.80;99.90;;;;;;2604069;46;20054;31
2023/11/30 02:19:40;;;;;;;13.60;6.78;;;-0.70;99.90;;;;;;2585619;54;20977;31
2023/11/30 02:22:17;;;;;;;12.40;6.77;;;-0.70;99.90;;;;;;2585896;54;20026;31
2023/11/30 02:24:52;;;;;;;14.50;7.47;;;-0.70;99.90;;;;;;2604283;46;20819;31
2023/11/30 02:27:25;;;;;;;14.57;7.27;;;-0.70;99.90;;;;;;2585510;54;20052;31
2023/11/30 02:29:58;;;;;;;15.50;7.20;;;-0.70;99.90;;;;;;2585662;54;20237;31
2023/11/30 02:32:31;;;;;;;19.13;7.85;;;-0.70;99.90;;;;;;2754810;31;22516;31
2023/11/30 02:35:05;;;;;;;12.98;6.88;;;-0.70;99.90;;;;;;2585783;54;20022;31
2023/11/30 02:37:41;;;;;;;13.90;6.40;;;-0.70;99.90;;;;;;2585865;54;20026;31
2023/11/30 02:40:15;;;;;;;;;;;-0.60;99.90;;;;;;2585937;54;20982;31
2023/11/30 02:42:49;;;;;;;10.95;5.80;;;0.30;99.90;;;;;;2683696;39;20938;31
2023/11/30 02:45:22;;;;;;;12.20;6.17;;;-0.60;99.90;;;;;;2603901;46;20026;31
2023/11/30 02:47:55;;;;;;;12.83;6.90;;;-0.60;99.90;;;;;;2585676;54;20972;31
2023/11/30 02:50:28;;;;;;;11.95;6.30;;;-0.60;99.90;;;;;;2585634;54;20026;31
2023/11/30 02:53:03;;;;;;;14.50;7.30;;;-0.60;99.90;;;;;;2585709;54;20030;31
2023/11/30 02:55:38;;;;;;;14.60;6.70;;;-0.60;99.90;;;;;;2585960;54;22390;31
2023/11/30 02:58:12;;;;;;;12.20;7.05;;;-0.50;99.90;;;;;;2702453;39;21012;31
2023/11/30 03:00:48;;;;;;;11.00;6.20;;;-0.50;99.90;;;;;;2585528;54;20081;31
2023/11/30 03:03:22;;;;;;;9.75;5.90;;;-0.50;99.90;;;;;;2603862;46;20072;31
2023/11/30 03:05:57;;;;;;;11.60;6.00;;;-0.40;99.90;;;;;;2585500;54;20946;31
2023/11/30 03:08:32;;;;;;;13.10;6.10;;;-0.40;99.90;;;;;;2701895;39;21082;31
2023/11/30 03:11:07;;;;;;;11.80;6.45;;;-0.40;99.90;;;;;;2585438;54;20941;31
2023/11/30 03:13:42;;;;;;;11.67;6.50;;;-0.40;99.90;;;;;;2604058;46;20962;31
2023/11/30 03:16:16;;;;;;;9.77;6.07;;;-0.40;99.90;;;;;;2585510;54;21001;31
2023/11/30 03:18:50;;;;;;;12.32;6.65;;;-0.30;99.90;;;;;;2585146;54;20069;31
2023/11/30 03:21:44;;;;;;;14.67;6.90;;;-0.30;99.90;;;;;;2585794;54;20033;31
2023/11/30 03:24:20;;;;;;;12.00;6.82;;;-0.30;99.90;;;;;;2585500;54;20038;31
2023/11/30 03:26:54;;;;;;;11.20;6.43;;;-0.30;99.90;;;;;;2585671;54;20081;31
2023/11/30 03:29:29;;;;;;;14.23;7.38;;;-0.30;99.90;;;;;;2585638;54;21325;31
2023/11/30 03:32:04;;;;;;;13.03;7.27;;;-0.20;99.90;;;;;;2585075;54;20976;31
2023/11/30 03:34:37;;;;;;;14.00;6.55;;;-0.30;99.90;;;;;;2585143;54;20164;31
2023/11/30 03:37:11;;;;;;;15.37;7.77;;;-0.20;99.90;;;;;;2585721;54;21430;31
2023/11/30 03:39:48;;;;;;;14.60;7.00;;;-0.20;99.90;;;;;;2603994;46;20788;31
2023/11/30 03:42:23;;;;;;;14.50;7.40;;;-0.20;99.90;;;;;;2585492;54;20046;31
2023/11/30 03:44:58;;;;;;;12.57;7.07;;;-0.20;99.90;;;;;;2585444;54;20026;31
2023/11/30 03:47:33;;;;;;;11.43;6.47;;;-0.20;99.90;;;;;;2604219;46;20034;31
2023/11/30 03:50:07;;;;;;;13.40;6.93;;;-0.20;99.90;;;;;;2603838;46;21141;31
2023/11/30 03:52:42;;;;;;;12.40;7.00;;;-0.20;99.90;;;;;;2585275;54;20953;31
2023/11/30 03:55:17;;;;;;;14.20;6.95;;;-0.10;99.90;;;;;;2585505;54;20053;31
2023/11/30 03:57:51;;;;;;;12.10;6.35;;;-0.10;99.90;;;;;;2585558;54;20874;31
2023/11/30 04:00:25;;;;;;;13.23;7.40;;;-0.10;99.90;;;;;;2585551;54;20813;31
2023/11/30 04:03:00;;;;;;;12.67;7.10;;;-0.10;99.90;;;;;;2603463;46;20921;31
2023/11/30 04:05:36;;;;;;;11.87;6.87;;;-0.10;99.90;;;;;;2603776;46;20097;31
2023/11/30 04:08:08;;;;;;;13.47;7.37;;;0.10;99.90;;;;;;2585171;54;21122;31
2023/11/30 04:10:44;;;;;;;13.55;7.05;;;-0.10;99.90;;;;;;2585548;54;20038;31
2023/11/30 04:13:19;;;;;;;13.38;7.80;;;-0.10;99.90;;;;;;2585340;54;20086;31
2023/11/30 04:15:55;;;;;;;16.60;7.80;;;-0.10;99.90;;;;;;2585517;54;20026;31
2023/11/30 04:18:30;;;;;;;15.55;7.25;;;-0.10;99.90;;;;;;2585309;54;20841;31
2023/11/30 04:21:03;;;;;;;14.47;7.70;;;-0.10;99.90;;;;;;2585399;54;20768;31
2023/11/30 04:23:38;;;;;;;12.60;6.80;;;-0.10;99.90;;;;;;2585337;54;20947;31
2023/11/30 04:26:14;;;;;;;13.55;8.30;;;0.00;99.90;;;;;;2585412;54;20026;31
2023/11/30 04:28:47;;;;;;;12.10;5.53;;;-0.10;99.90;;;;;;2683420;39;21038;31
2023/11/30 04:31:20;;;;;;;14.20;7.40;;;0.00;99.90;;;;;;2585081;54;20819;31
2023/11/30 04:33:53;;;;;;;14.15;7.40;;;0.00;99.90;;;;;;2603834;46;20865;31
2023/11/30 04:36:26;;;;;;;16.20;7.75;;;0.00;99.90;;;;;;2584847;54;20837;31
2023/11/30 04:39:01;;;;;;;14.25;7.15;;;0.00;99.90;;;;;;2603469;46;20806;31
2023/11/30 04:41:36;;;;;;;15.83;6.77;;;0.00;99.90;;;;;;2585067;54;20901;31
2023/11/30 04:44:10;;;;;;;14.88;7.97;;;0.00;99.90;;;;;;2584896;54;20929;31
2023/11/30 04:46:43;;;;;;;14.00;7.60;;;0.00;99.90;;;;;;2585010;54;20037;31
2023/11/30 04:49:16;;;;;;;14.52;7.55;;;0.00;99.90;;;;;;2585166;54;20983;31
2023/11/30 04:51:51;;;;;;;17.08;8.43;;;-1.30;99.90;;;;;;2585174;54;20026;31
2023/11/30 04:54:26;;;;;;;13.87;7.17;;;0.00;99.90;;;;;;2585138;54;20081;31
2023/11/30 04:57:02;;;;;;;15.15;7.38;;;0.00;99.90;;;;;;2585145;54;20259;31
2023/11/30 04:59:38;;;;;;;16.02;8.05;;;-0.10;99.90;;;;;;2584980;54;20035;31
2023/11/30 05:02:11;;;;;;;12.40;7.40;;;0.00;99.90;;;;;;2603675;46;20026;31
2023/11/30 05:04:46;;;;;;;14.02;7.18;;;0.00;99.90;;;;;;2585158;54;20069;31
2023/11/30 05:07:18;;;;;;;14.13;8.18;;;-0.20;99.90;;;;;;2585122;54;20044;31
2023/11/30 05:09:53;;;;;;;16.00;8.35;;;-0.20;99.90;;;;;;2585246;54;20053;31
2023/11/30 05:12:28;;;;;;;14.23;7.70;;;-0.20;99.90;;;;;;2603319;47;21194;31
2023/11/30 05:15:01;;;;;;;14.82;8.80;;;-0.20;99.90;;;;;;2604125;47;20946;31
2023/11/30 05:17:33;;;;;;;14.10;7.97;;;-0.30;99.90;;;;;;2585203;54;20168;31
2023/11/30 05:20:08;;;;;;;14.93;7.43;;;-0.30;99.90;;;;;;2585022;54;20340;31
2023/11/30 05:22:43;;;;;;;14.80;8.03;;;-0.30;99.90;;;;;;2585225;54;20030;31
2023/11/30 05:25:16;;;;;;;15.50;7.75;;;-0.30;99.90;;;;;;2585169;54;20034;31
2023/11/30 05:27:51;;;;;;;16.60;7.60;;;-0.30;99.90;;;;;;2585252;54;20032;31
2023/11/30 05:30:26;;;;;;;15.70;8.75;;;-0.40;99.90;;;;;;2585065;54;20989;31
2023/11/30 05:32:59;;;;;;;11.05;6.65;;;-0.40;99.90;;;;;;2603299;47;20037;31
2023/11/30 05:35:33;;;;;;;13.38;7.18;;;-0.40;99.90;;;;;;2585180;54;20051;31
2023/11/30 05:38:07;;;;;;;19.55;9.80;;;-0.40;99.90;;;;;;2585175;54;20026;31
2023/11/30 05:40:43;;;;;;;17.87;8.87;;;-0.60;99.90;;;;;;2585220;54;21077;31
2023/11/30 05:43:20;;;;;;;16.65;8.60;;;-0.30;99.90;;;;;;2585187;54;20815;31
2023/11/30 05:45:55;;;;;;;17.73;8.63;;;-0.40;99.90;;;;;;2585303;54;20027;31
2023/11/30 05:48:30;;;;;;;21.60;10.30;;;-0.50;99.90;;;;;;2603713;47;21039;31
2023/11/30 05:51:05;;;;;;;18.00;9.65;;;-0.40;99.90;;;;;;2585730;54;20810;31
2023/11/30 05:53:40;;;;;;;19.45;10.30;;;-0.40;99.90;;;;;;2585983;54;21190;31
2023/11/30 05:56:13;;;;;;;20.90;9.93;;;-0.40;99.90;;;;;;2604136;46;20049;31
2023/11/30 05:58:48;;;;;;;18.63;10.55;;;-0.40;99.90;;;;;;2604871;46;20022;31
2023/11/30 06:01:22;;;;;;;23.50;11.40;;;-0.40;99.90;;;;;;2585843;54;20030;31
2023/11/30 06:03:57;;;;;;;24.70;10.97;;;-0.40;99.90;;;;;;2604050;46;20949;31
2023/11/30 06:06:31;;;;;;;19.15;10.95;;;-0.40;99.90;;;;;;2585000;54;20053;31
2023/11/30 06:09:06;;;;;;;21.23;10.35;;;-0.40;99.90;;;;;;2604238;46;20907;31
2023/11/30 06:11:41;;;;;;;19.65;9.98;;;-0.50;99.90;;;;;;2585917;54;20085;31
2023/11/30 06:14:19;;;;;;;22.42;11.05;;;-0.40;99.90;;;;;;2585583;54;20984;31
2023/11/30 06:16:54;;;;;;;18.77;9.30;;;-0.40;99.90;;;;;;2585782;54;20030;31
2023/11/30 06:19:29;;;;;;;18.35;9.05;;;-0.40;99.90;;;;;;2585663;54;20984;31
2023/11/30 06:22:03;;;;;;;20.10;9.15;;;-0.40;99.90;;;;;;2585265;54;20921;31
2023/11/30 06:24:38;;;;;;;19.85;10.05;;;-0.40;99.90;;;;;;2585939;54;20056;31
2023/11/30 06:27:11;;;;;;;14.90;7.95;;;-0.50;99.90;;;;;;2585685;54;20836;31
2023/11/30 06:29:48;;;;;;;16.15;8.75;;;-0.40;99.90;;;;;;2604058;46;20030;31
2023/11/30 06:32:23;;;;;;;20.92;9.48;;;-0.40;99.90;;;;;;2585411;54;20026;31
2023/11/30 06:34:58;;;;;;;17.75;8.70;;;-0.30;99.90;;;;;;2683375;39;21586;31
2023/11/30 06:37:33;;;;;;;21.30;10.55;;;-0.30;99.90;;;;;;2585721;54;20920;31
2023/11/30 06:40:08;;;;;;;18.30;8.47;;;-0.30;99.90;;;;;;2585503;54;20061;31
2023/11/30 06:42:41;;;;;;;16.10;8.55;;;-0.20;99.90;;;;;;2585694;54;20903;31
2023/11/30 06:45:18;;;;;;;16.67;8.63;;;-0.30;99.90;;;;;;2585759;54;20948;31
2023/11/30 06:47:50;;;;;;;;;;;-0.30;99.90;;;;;;2684132;39;22403;31
2023/11/30 06:50:25;;;;;;;14.93;7.47;;;-0.20;99.90;;;;;;2585047;54;19965;31
2023/11/30 06:53:01;;;;;;;17.65;9.40;;;-0.30;99.90;;;;;;2585573;54;21117;31
2023/11/30 06:55:35;;;;;;;;;;;-0.20;99.90;;;;;;2604589;46;20049;31
2023/11/30 06:58:09;;;;;;;17.98;8.65;;;-0.10;99.90;;;;;;2603836;46;20700;31
2023/11/30 07:00:46;;;;;;;21.30;9.45;;;-0.20;99.90;;;;;;2585574;54;20824;31
2023/11/30 07:03:21;;;;;;;21.57;10.73;;;-0.10;99.90;;;;;;2585957;54;20930;31
2023/11/30 07:05:56;;;;;;;41.60;17.38;;;-0.10;99.90;;;;;;2585744;54;20775;31
2023/11/30 07:08:30;;;;;;;40.28;18.33;;;-0.10;99.90;;;;;;2585490;54;20913;31
2023/11/30 07:11:05;;;;;;;87.25;28.98;;;0.00;99.90;;;;;;2585527;54;20983;31
2023/11/30 07:13:41;;;;;;;72.85;25.33;;;0.10;99.90;;;;;;2603865;46;20073;31
2023/11/30 07:16:20;;;;;;;53.92;20.80;;;0.50;99.90;;;;;;2585450;54;20026;31
2023/11/30 07:18:56;;;;;;;44.30;19.88;;;0.80;99.90;;;;;;2585357;54;21100;31
2023/11/30 07:21:29;;;;;;;;;;;1.10;99.90;;;;;;2604544;46;20928;31
2023/11/30 07:24:02;;;;;;;30.48;15.80;;;1.40;99.90;;;;;;2585143;54;20021;31
2023/11/30 07:26:38;;;;;;;38.58;17.70;;;1.90;99.90;;;;;;2585696;54;20933;31
2023/11/30 07:29:14;;;;;;;27.88;15.80;;;2.40;99.90;;;;;;2585211;54;20941;31
2023/11/30 07:31:54;;;;;;;35.00;16.25;;;3.00;99.90;;;;;;2585597;54;20875;31
2023/11/30 07:34:30;;;;;;;31.75;15.60;;;3.30;99.90;;;;;;2585226;54;20062;31
2023/11/30 07:37:04;;;;;;;36.40;17.55;;;3.30;99.90;;;;;;2585503;54;20026;31
2023/11/30 07:39:37;;;;;;;30.58;16.63;;;3.50;99.90;;;;;;2585597;54;20921;31
2023/11/30 07:42:16;;;;;;;27.93;15.70;;;3.70;99.90;;;;;;2585496;54;20030;31
2023/11/30 07:45:03;;;;;;;31.85;14.45;;;4.10;99.90;;;;;;2603649;46;20918;31
2023/11/30 07:47:41;;;;;;;28.25;14.15;;;4.30;99.90;;;;;;2604065;46;20023;31
2023/11/30 07:50:17;;;;;;;29.55;16.05;;;4.40;99.90;;;;;;2585464;54;20049;31
2023/11/30 07:52:52;;;;;;;27.07;16.13;;;4.30;99.90;;;;;;2603999;46;20026;31
2023/11/30 07:55:28;;;;;;;31.90;19.33;;;4.10;99.90;;;;;;2584952;54;20031;31
2023/11/30 07:58:04;;;;;;;35.95;18.65;;;4.20;99.90;;;;;;2585397;54;20110;31
2023/11/30 08:00:38;;;;;;;46.20;19.10;;;4.30;99.90;;;;;;2585406;54;19938;31
2023/11/30 08:03:15;;;;;;;36.80;19.10;;;4.10;99.90;;;;;;2585565;54;20261;31
2023/11/30 08:05:50;;;;;;;39.87;21.47;;;3.90;99.90;;;;;;2585377;54;20818;31
2023/11/30 08:08:27;;;;;;;47.20;23.07;;;3.80;99.90;;;;;;2585207;54;20948;31
2023/11/30 08:11:02;;;;;;;48.42;23.85;;;3.60;99.90;;;;;;2584968;54;20961;31
2023/11/30 08:13:41;;;;;;;44.60;24.30;;;3.50;99.90;;;;;;2584944;54;21022;31
2023/11/30 08:16:17;;;;;;;44.95;24.95;;;3.40;99.90;;;;;;2585629;54;20026;31
2023/11/30 08:18:56;;;;;;;52.60;26.80;;;3.30;99.90;;;;;;2585162;54;20048;31
2023/11/30 08:21:30;;;;;;;49.40;26.48;;;3.30;99.90;;;;;;2603182;46;22685;31
2023/11/30 08:24:05;;;;;;;61.58;32.92;;;3.40;99.90;;;;;;2585183;54;20920;31
2023/11/30 08:26:40;;;;;;;47.60;25.53;;;3.40;99.90;;;;;;2585421;54;21220;31
2023/11/30 08:29:18;;;;;;;45.97;21.58;;;3.10;99.90;;;;;;2603923;46;20956;31
2023/11/30 08:31:54;;;;;;;47.60;22.55;;;3.00;99.90;;;;;;2585330;54;21069;31
2023/11/30 08:34:31;;;;;;;;;;;3.00;99.90;;;;;;2604069;46;20034;31
2023/11/30 08:37:04;;;;;;;47.28;21.92;;;2.80;99.90;;;;;;2603413;46;20839;31
2023/11/30 08:39:39;;;;;;;49.35;23.75;;;2.70;99.90;;;;;;2585437;54;20052;31
2023/11/30 08:42:16;;;;;;;55.15;28.50;;;2.70;99.90;;;;;;2603627;46;20026;31
2023/11/30 08:44:50;;;;;;;57.20;27.37;;;2.60;99.90;;;;;;2585316;54;20059;31
2023/11/30 08:47:27;;;;;;;55.13;28.98;;;2.60;99.90;;;;;;2603631;46;20249;31
2023/11/30 08:50:07;;;;;;;61.42;31.83;;;2.70;99.90;;;;;;2603823;46;20879;31
2023/11/30 08:52:43;;;;;;;41.10;23.30;;;2.90;99.90;;;;;;2585168;54;20937;31
2023/11/30 08:55:18;;;;;;;47.00;21.87;;;2.90;99.90;;;;;;2603786;46;20929;31
2023/11/30 08:57:54;;;;;;;45.15;19.95;;;3.00;99.90;;;;;;2585218;54;20996;31
2023/11/30 09:00:31;;;;;;;37.53;19.95;;;3.20;99.90;;;;;;2585193;54;20097;31
2023/11/30 09:03:06;;;;;;;39.45;20.55;;;3.20;99.90;;;;;;2683397;39;20979;31
2023/11/30 09:05:42;;;;;;;46.03;21.10;;;3.20;99.90;;;;;;2585071;54;20945;31
2023/11/30 09:08:16;;;;;;;40.00;21.20;;;3.20;99.90;;;;;;2583212;54;20951;31
2023/11/30 09:10:51;;;;;;;36.03;20.93;;;3.20;99.90;;;;;;2603852;46;21025;31
2023/11/30 09:13:24;;;;;;;45.10;25.58;;;3.10;99.90;;;;;;2682357;39;20432;31
2023/11/30 09:15:57;;;;;;;59.20;30.80;;;3.10;99.90;;;;;;2584720;54;20033;31
2023/11/30 09:18:32;;;;;;;42.13;22.42;;;3.00;99.90;;;;;;2585243;54;20049;31
2023/11/30 09:21:08;;;;;;;42.03;20.10;;;3.00;99.90;;;;;;2585300;54;22418;31
2023/11/30 09:23:43;;;;;;;41.87;21.73;;;3.00;99.90;;;;;;2585843;54;20919;31
2023/11/30 09:26:18;;;;;;;37.05;19.15;;;3.00;99.90;;;;;;2585780;54;20037;31
2023/11/30 09:28:51;;;;;;;37.65;18.67;;;2.90;99.90;;;;;;2585944;54;20093;31
2023/11/30 09:31:24;;;;;;;41.75;20.33;;;2.90;99.90;;;;;;2684091;39;21047;31
2023/11/30 09:33:57;;;;;;;39.67;20.33;;;2.90;99.90;;;;;;2585678;54;20890;31
2023/11/30 09:36:34;;;;;;;38.30;18.45;;;2.80;99.90;;;;;;2683636;39;20432;31
2023/11/30 09:39:13;;;;;;;38.87;17.53;;;2.80;99.90;;;;;;2584876;54;20049;31
2023/11/30 09:41:47;;;;;;;39.30;20.07;;;2.80;99.90;;;;;;2585986;54;20045;31
2023/11/30 09:44:22;;;;;;;34.43;17.90;;;2.90;99.90;;;;;;2585951;54;20791;31
2023/11/30 09:46:55;;;;;;;33.67;18.17;;;2.90;99.90;;;;;;2604315;46;20987;31
2023/11/30 09:49:28;;;;;;;37.40;18.50;;;2.90;99.90;;;;;;2585760;54;20036;31
2023/11/30 09:52:04;;;;;;;39.35;19.90;;;2.90;99.90;;;;;;2604278;46;20817;31
2023/11/30 09:54:37;;;;;;;32.88;18.02;;;2.90;99.90;;;;;;2585670;54;20807;31
2023/11/30 09:57:11;;;;;;;34.73;18.40;;;2.90;99.90;;;;;;2586138;54;20022;31
2023/11/30 09:59:44;;;;;;;39.17;20.60;;;2.90;99.90;;;;;;2603358;46;20046;31
2023/11/30 10:02:17;;;;;;;45.90;21.35;;;3.00;99.90;;;;;;2585070;54;20022;31
2023/11/30 10:04:53;;;;;;;33.30;19.30;;;3.10;99.90;;;;;;2604218;46;20847;31
2023/11/30 10:07:31;;;;;;;41.17;19.70;;;3.20;99.90;;;;;;2585855;54;21324;31
2023/11/30 10:10:08;;;;;;;35.25;19.00;;;3.40;99.90;;;;;;2585873;54;20944;31
2023/11/30 10:12:42;;;;;;;33.90;17.67;;;3.50;99.90;;;;;;2585186;54;20917;31
2023/11/30 10:15:17;;;;;;;38.60;19.58;;;3.60;99.90;;;;;;2585576;54;20101;31
2023/11/30 10:17:50;;;;;;;77.10;33.20;;;3.60;99.90;;;;;;2585664;54;20031;31
2023/11/30 10:20:25;;;;;;;41.60;22.67;;;3.70;99.90;;;;;;2585505;54;20288;31
2023/11/30 10:23:02;;;;;;;41.80;21.60;;;3.90;99.90;;;;;;2585717;54;20385;31
2023/11/30 10:25:35;;;;;;;48.90;24.40;;;4.00;99.90;;;;;;2585343;54;20042;31
2023/11/30 10:28:09;;;;;;;46.55;24.00;;;4.00;99.90;;;;;;2585642;54;21239;31
2023/11/30 10:30:43;;;;;;;42.00;22.08;;;4.00;99.90;;;;;;2585747;54;20022;31
2023/11/30 10:33:17;;;;;;;43.23;23.77;;;4.10;99.90;;;;;;2585733;54;22474;31
2023/11/30 10:35:52;;;;;;;38.95;20.90;;;4.00;99.90;;;;;;2585387;54;20030;31
2023/11/30 10:38:30;;;;;;;35.90;21.30;;;4.00;99.90;;;;;;2585922;54;20031;31
2023/11/30 10:41:09;;;;;;;37.85;20.30;;;4.00;99.90;;;;;;2585606;54;20891;31
2023/11/30 10:43:48;;;;;;;38.95;19.60;;;4.40;99.90;;;;;;2585637;54;20858;31
2023/11/30 10:46:21;;;;;;;40.40;19.75;;;3.80;99.90;;;;;;2585472;54;20064;31
2023/11/30 10:48:56;;;;;;;36.40;17.85;;;3.70;99.90;;;;;;2585681;54;20075;31
2023/11/30 10:51:31;;;;;;;30.50;17.40;;;3.80;99.90;;;;;;2585393;54;20058;31
2023/11/30 10:54:11;;;;;;;35.75;19.40;;;3.60;99.90;;;;;;2585596;54;20037;31
2023/11/30 10:56:46;;;;;;;39.55;20.20;;;3.60;99.90;;;;;;2585622;54;21151;31
2023/11/30 10:59:19;;;;;;;38.10;18.60;;;3.50;99.90;;;;;;2585421;54;21007;31
2023/11/30 11:01:52;;;;;;;35.65;18.40;;;3.50;99.90;;;;;;2585544;54;20053;31
2023/11/30 11:04:27;;;;;;;36.50;19.00;;;3.60;99.90;;;;;;2585642;54;20065;31
2023/11/30 11:07:05;;;;;;;42.67;20.38;;;3.50;99.90;;;;;;2585420;54;20945;31
2023/11/30 11:09:46;;;;;;;33.75;18.55;;;3.40;99.90;;;;;;2585495;54;20030;31
2023/11/30 11:12:25;;;;;;;36.30;18.30;;;3.50;99.90;;;;;;2585472;54;20861;31
2023/11/30 11:15:08;;;;;;;33.75;16.80;;;3.30;99.90;;;;;;2683527;39;22310;31
2023/11/30 11:17:49;;;;;;;31.13;17.80;;;3.40;99.90;;;;;;2585406;54;21006;31
2023/11/30 11:20:28;;;;;;;32.17;16.80;;;3.30;99.90;;;;;;2585480;54;20097;31
2023/11/30 11:23:01;;;;;;;36.03;18.33;;;2.00;99.90;;;;;;2584966;54;20023;31
2023/11/30 11:25:54;;;;;;;33.83;18.10;;;3.50;99.90;;;;;;2585403;54;20832;31
2023/11/30 11:37:17;;;;;;;28.17;15.48;;;3.40;99.90;;;;;;2585483;54;20984;31
2023/11/30 11:39:54;;;;;;;33.97;17.03;;;3.40;99.90;;;;;;2585240;54;21328;31
2023/11/30 11:42:32;;;;;;;33.13;16.95;;;3.40;99.90;;;;;;2585249;54;20941;31
2023/11/30 11:45:13;;;;;;;33.67;17.07;;;3.40;99.90;;;;;;2585003;54;21018;31
2023/11/30 11:47:52;;;;;;;29.13;17.60;;;3.50;99.90;;;;;;2585394;54;20030;31
2023/11/30 11:53:26;;;;;;;31.15;16.65;;;3.50;99.90;;;;;;2584415;54;20023;31
2023/11/30 11:59:06;;;;;;;35.60;18.25;;;3.50;99.90;;;;;;2584459;54;20911;31
2023/11/30 12:01:50;;;;;;;33.70;16.67;;;3.50;99.90;;;;;;2585160;54;21455;31
2023/11/30 12:04:31;;;;;;;29.52;16.25;;;3.50;99.90;;;;;;2603930;46;22402;31
2023/11/30 12:13:20;;;;;;;32.13;17.03;;;3.60;99.90;;;;;;2584788;54;20034;31
2023/11/30 12:16:08;;;;;;;33.80;16.53;;;3.60;99.90;;;;;;2584980;54;20100;31
2023/11/30 12:18:42;;;;;;;32.70;16.53;;;3.60;99.90;;;;;;2585299;54;20145;31
2023/11/30 12:24:21;;;;;;;53.95;25.05;;;3.50;99.90;;;;;;2682509;39;20393;31
2023/11/30 12:33:10;;;;;;;36.40;17.77;;;3.40;99.90;;;;;;2584813;54;20026;31
2023/11/30 12:35:54;;;;;;;41.93;21.13;;;3.40;99.90;;;;;;2585114;54;20790;31
2023/11/30 12:38:30;;;;;;;35.80;20.17;;;3.30;99.90;;;;;;2585278;54;20473;31
2023/11/30 12:50:38;;;;;;;40.55;17.95;;;3.20;99.90;;;;;;2584675;54;20022;31
2023/11/30 12:53:14;;;;;;;30.38;16.55;;;3.20;99.90;;;;;;2603748;46;20981;31
2023/11/30 12:55:47;;;;;;;41.95;16.55;;;3.30;99.90;;;;;;2603227;46;20868;31
2023/11/30 12:58:22;;;;;;;34.20;16.70;;;3.20;99.90;;;;;;2584850;54;20041;31
2023/11/30 13:00:57;;;;;;;34.25;15.88;;;3.20;99.90;;;;;;2584949;54;20187;31
2023/11/30 13:03:32;;;;;;;28.25;15.48;;;3.20;99.90;;;;;;2585011;54;20984;31
2023/11/30 13:06:13;;;;;;;27.53;15.73;;;3.20;99.90;;;;;;2585000;54;20496;31
2023/11/30 13:08:46;;;;;;;48.00;24.35;;;3.20;99.90;;;;;;2603441;46;20996;31
2023/11/30 13:11:19;;;;;;;51.75;29.20;;;3.20;99.90;;;;;;2683442;39;22400;31
2023/11/30 13:13:54;;;;;;;42.40;23.30;;;3.10;99.90;;;;;;2585382;54;21023;31
2023/11/30 13:16:29;;;;;;;44.70;23.30;;;3.10;99.90;;;;;;2584946;54;20956;31
2023/11/30 13:19:03;;;;;;;62.67;30.37;;;3.00;99.90;;;;;;2585339;54;21149;31
2023/11/30 13:21:41;;;;;;;121.43;53.50;;;3.00;99.90;;;;;;2682767;39;20377;31
2023/11/30 13:24:15;;;;;;;73.05;36.78;;;3.00;99.90;;;;;;2584912;54;21052;31
2023/11/30 13:26:49;;;;;;;56.50;27.05;;;3.00;99.90;;;;;;2603193;47;21870;31
2023/11/30 13:29:23;;;;;;;46.72;23.75;;;3.00;99.90;;;;;;2584734;54;20907;31
2023/11/30 13:31:58;;;;;;;46.30;22.50;;;3.00;99.90;;;;;;2603179;47;20966;31
2023/11/30 13:34:34;;;;;;;37.20;21.00;;;2.90;99.90;;;;;;2603542;47;20886;31
2023/11/30 13:37:15;;;;;;;36.25;19.05;;;2.90;99.90;;;;;;2584753;54;20068;31
2023/11/30 13:39:48;;;;;;;34.70;18.13;;;2.90;99.90;;;;;;2584725;54;20059;31
2023/11/30 13:42:23;;;;;;;40.97;21.08;;;2.90;99.90;;;;;;2584692;54;20026;31
2023/11/30 13:44:58;;;;;;;52.80;26.45;;;2.90;99.90;;;;;;2585136;54;21151;31
2023/11/30 13:47:34;;;;;;;59.60;27.80;;;2.80;99.90;;;;;;2585097;54;20030;31
2023/11/30 13:50:07;;;;;;;59.30;29.70;;;2.80;99.90;;;;;;2584812;54;20033;31
2023/11/30 13:52:58;;;;;;;43.67;25.02;;;2.80;99.90;;;;;;2682625;39;20416;31
2023/11/30 13:55:37;;;;;;;51.70;26.90;;;2.80;99.90;;;;;;2584872;54;20921;31
2023/11/30 13:58:13;;;;;;;61.05;28.77;;;2.70;99.90;;;;;;2584520;54;20144;31
2023/11/30 14:00:46;;;;;;;56.42;27.88;;;2.70;99.90;;;;;;2584992;54;20974;31
2023/11/30 14:03:21;;;;;;;70.07;32.07;;;2.70;99.90;;;;;;2584948;54;20022;31
2023/11/30 14:05:56;;;;;;;100.00;41.95;;;2.70;99.90;;;;;;2585016;54;21144;31
2023/11/30 14:08:30;;;;;;;68.55;33.65;;;2.60;99.90;;;;;;2602912;47;21939;31